Time;durP1;ratioP1;P1;durP2;ratioP2;P2;SDS_P1;SDS_P2;PMS_P1;PMS_P2;Temp;Humidity;BMP_temperature;BMP_pressure;BME280_temperature;BME280_humidity;BME280_pressure;Samples;Min_cycle;Max_cycle;Signal;HPM_P1;HPM_P2
2021/04/18 00:01:04;;;;;;;12.50;11.40;;;5.10;99.90;;;;;;5029134;28;20212;-79
2021/04/18 00:03:31;;;;;;;14.13;12.73;;;5.20;99.90;;;;;;5021924;28;20197;-79
2021/04/18 00:05:57;;;;;;;15.27;13.70;;;5.20;99.90;;;;;;5014759;28;20189;-79
2021/04/18 00:08:24;;;;;;;13.73;12.43;;;5.20;99.90;;;;;;5016998;28;20192;-79
2021/04/18 00:10:51;;;;;;;13.27;11.70;;;5.20;99.90;;;;;;5014089;28;20221;-78
2021/04/18 00:13:18;;;;;;;13.50;12.30;;;5.20;99.90;;;;;;5035406;28;20207;-79
2021/04/18 00:15:44;;;;;;;12.80;11.70;;;5.20;99.90;;;;;;5009814;28;20201;-78
2021/04/18 00:18:11;;;;;;;13.90;12.60;;;5.20;99.90;;;;;;4999301;28;20216;-79
2021/04/18 00:20:38;;;;;;;14.57;13.27;;;5.20;99.90;;;;;;4999101;28;20308;-78
2021/04/18 00:23:05;;;;;;;13.10;11.83;;;5.20;99.90;;;;;;5036168;28;20198;-78
2021/04/18 00:25:32;;;;;;;21.13;12.90;;;5.20;99.90;;;;;;5024118;28;20209;-78
2021/04/18 00:27:59;;;;;;;14.23;12.80;;;5.10;99.90;;;;;;5017762;28;20432;-79
2021/04/18 00:30:25;;;;;;;13.57;12.30;;;5.10;99.90;;;;;;5015253;28;20452;-78
2021/04/18 00:32:53;;;;;;;15.73;13.30;;;5.10;99.90;;;;;;5015792;28;20435;-79
2021/04/18 00:35:20;;;;;;;12.50;11.50;;;5.10;99.90;;;;;;5007653;28;20452;-78
2021/04/18 00:37:47;;;;;;;12.67;11.60;;;5.10;99.90;;;;;;5016746;28;20632;-78
2021/04/18 00:40:16;;;;;;;14.10;12.83;;;5.10;99.90;;;;;;5003866;28;20232;-79
2021/04/18 00:42:43;;;;;;;13.43;12.17;;;5.10;99.90;;;;;;5039726;28;20197;-79
2021/04/18 00:45:11;;;;;;;12.77;11.67;;;5.10;99.90;;;;;;5044005;28;20441;-78
2021/04/18 00:47:41;;;;;;;14.00;12.60;;;5.10;99.90;;;;;;5013511;28;20447;-78
2021/04/18 00:50:09;;;;;;;13.30;12.10;;;5.10;99.90;;;;;;5014917;28;20451;-79
2021/04/18 00:52:35;;;;;;;14.77;13.47;;;5.10;99.90;;;;;;5016084;28;20201;-79
2021/04/18 00:55:04;;;;;;;14.20;12.90;;;5.10;99.90;;;;;;5024108;28;20201;-79
2021/04/18 00:57:30;;;;;;;14.80;13.50;;;5.10;99.90;;;;;;5043788;28;20255;-79
2021/04/18 00:59:59;;;;;;;13.60;12.40;;;5.10;99.90;;;;;;5039873;28;20235;-79
2021/04/18 01:02:26;;;;;;;14.40;13.00;;;5.10;99.90;;;;;;5031722;28;20459;-78
2021/04/18 01:04:52;;;;;;;15.00;13.50;;;5.10;99.90;;;;;;5044365;28;20587;-78
2021/04/18 01:07:19;;;;;;;15.30;13.90;;;5.10;99.90;;;;;;5021750;28;20224;-79
2021/04/18 01:09:45;;;;;;;15.23;13.83;;;5.10;99.90;;;;;;5051039;28;20497;-79
2021/04/18 01:12:12;;;;;;;14.93;13.53;;;5.00;99.90;;;;;;5013296;28;20198;-79
2021/04/18 01:14:38;;;;;;;14.10;12.90;;;5.10;99.90;;;;;;5040121;28;20304;-78
2021/04/18 01:17:06;;;;;;;14.13;12.73;;;5.00;99.90;;;;;;5031418;28;20310;-78
2021/04/18 01:19:34;;;;;;;15.33;13.83;;;5.00;99.90;;;;;;5046883;28;20235;-79
2021/04/18 01:22:02;;;;;;;13.33;12.13;;;5.00;99.90;;;;;;5039780;28;20547;-79
2021/04/18 01:24:41;;;;;;;14.27;13.03;;;5.00;99.90;;;;;;5040365;28;20204;-79
2021/04/18 01:27:26;;;;;;;14.53;13.33;;;5.00;99.90;;;;;;5016579;28;20465;-78
2021/04/18 01:29:52;;;;;;;15.10;13.70;;;5.00;99.90;;;;;;5022887;28;20231;-79
2021/04/18 01:32:21;;;;;;;13.07;11.97;;;5.00;99.90;;;;;;5022775;28;20462;-78
2021/04/18 01:34:48;;;;;;;14.47;13.20;;;4.90;99.90;;;;;;5040331;28;20209;-78
2021/04/18 01:37:20;;;;;;;14.73;13.43;;;4.90;99.90;;;;;;5041934;28;20244;-78
2021/04/18 01:39:48;;;;;;;14.80;13.40;;;4.90;99.90;;;;;;5014134;28;20470;-78
2021/04/18 01:42:15;;;;;;;14.93;13.60;;;4.90;99.90;;;;;;5034408;28;20196;-79
2021/04/18 01:44:42;;;;;;;10.80;8.67;;;4.90;99.90;;;;;;4990985;28;20451;-78
2021/04/18 01:47:09;;;;;;;9.73;8.03;;;4.90;99.90;;;;;;4994858;28;20535;-78
2021/04/18 01:49:37;;;;;;;12.60;9.60;;;5.00;99.90;;;;;;5016437;28;20219;-79
2021/04/18 01:52:04;;;;;;;9.07;8.17;;;4.90;99.90;;;;;;4995563;28;20204;-79
2021/04/18 01:54:32;;;;;;;9.73;7.83;;;4.90;99.90;;;;;;5035002;28;20513;-79
2021/04/18 01:56:58;;;;;;;8.67;7.60;;;4.90;99.90;;;;;;5023206;28;20223;-79
2021/04/18 01:59:25;;;;;;;9.57;8.43;;;4.90;99.90;;;;;;4997465;28;20204;-79
2021/04/18 02:02:07;;;;;;;9.10;8.13;;;5.00;99.90;;;;;;4997812;28;20458;-78
2021/04/18 02:04:35;;;;;;;7.90;7.00;;;5.00;99.90;;;;;;4998148;28;20204;-79
2021/04/18 02:07:05;;;;;;;7.87;7.07;;;4.90;99.90;;;;;;4994808;28;20190;-78
2021/04/18 02:09:34;;;;;;;9.00;7.77;;;4.90;99.90;;;;;;4995163;28;20572;-78
2021/04/18 02:12:05;;;;;;;10.53;7.77;;;4.90;99.90;;;;;;4994892;28;20197;-79
2021/04/18 02:14:32;;;;;;;9.53;6.83;;;4.80;99.90;;;;;;5019557;28;20232;-79
2021/04/18 02:17:06;;;;;;;9.00;7.53;;;4.90;99.90;;;;;;4998742;28;20212;-79
2021/04/18 02:19:33;;;;;;;9.90;7.20;;;4.90;99.90;;;;;;5014696;28;21015;-79
2021/04/18 02:22:00;;;;;;;11.27;8.00;;;4.90;99.90;;;;;;4997120;28;20448;-79
2021/04/18 02:24:27;;;;;;;8.53;7.57;;;4.90;99.90;;;;;;4998363;28;20439;-79
2021/04/18 02:26:56;;;;;;;7.57;6.83;;;4.80;99.90;;;;;;4998344;28;20201;-79
2021/04/18 02:29:32;;;;;;;8.33;7.17;;;4.80;99.90;;;;;;5022917;28;20208;-79
2021/04/18 02:32:03;;;;;;;8.53;7.40;;;4.90;99.90;;;;;;4998980;28;20264;-79
2021/04/18 02:34:35;;;;;;;9.60;7.23;;;4.80;99.90;;;;;;4994774;28;20203;-79
2021/04/18 02:37:01;;;;;;;8.77;7.87;;;4.80;99.90;;;;;;4997397;28;20879;-78
2021/04/18 02:39:29;;;;;;;9.90;7.53;;;4.80;99.90;;;;;;4994080;28;21103;-78
2021/04/18 02:41:57;;;;;;;8.50;7.40;;;4.80;99.90;;;;;;4995589;28;20202;-81
2021/04/18 02:44:24;;;;;;;9.47;8.50;;;4.80;99.90;;;;;;5002137;28;20450;-79
2021/04/18 02:46:51;;;;;;;10.17;8.40;;;4.80;99.90;;;;;;5038279;28;20451;-79
2021/04/18 02:49:17;;;;;;;9.57;8.03;;;4.80;99.90;;;;;;5014604;28;20534;-80
2021/04/18 02:51:45;;;;;;;9.63;8.10;;;4.80;99.90;;;;;;5012762;28;20533;-79
2021/04/18 02:54:12;;;;;;;10.23;7.70;;;4.80;99.90;;;;;;5011951;28;20451;-77
2021/04/18 02:56:44;;;;;;;10.83;9.17;;;4.70;99.90;;;;;;5003895;28;20557;-80
2021/04/18 02:59:14;;;;;;;10.40;9.00;;;4.80;99.90;;;;;;4989980;28;21032;-78
2021/04/18 03:01:41;;;;;;;9.97;8.30;;;4.80;99.90;;;;;;4999013;28;20232;-78
2021/04/18 03:04:08;;;;;;;11.07;8.77;;;4.70;99.90;;;;;;4988178;28;20497;-77
2021/04/18 03:06:35;;;;;;;10.27;8.50;;;4.70;99.90;;;;;;5001850;28;20460;-77
2021/04/18 03:09:01;;;;;;;8.77;7.87;;;4.70;99.90;;;;;;5007865;28;20456;-78
2021/04/18 03:11:28;;;;;;;9.93;8.23;;;4.70;99.90;;;;;;5010386;28;20240;-77
2021/04/18 03:14:00;;;;;;;9.60;7.83;;;4.70;99.90;;;;;;5015591;28;20444;-77
2021/04/18 03:16:28;;;;;;;11.67;8.70;;;4.70;99.90;;;;;;5033180;28;20597;-77
2021/04/18 03:18:55;;;;;;;13.43;9.80;;;4.70;99.90;;;;;;5006149;28;20232;-77
2021/04/18 03:21:22;;;;;;;8.67;7.77;;;4.60;99.90;;;;;;5007172;28;20553;-78
2021/04/18 03:23:48;;;;;;;10.30;8.57;;;4.60;99.90;;;;;;5003894;28;20192;-79
2021/04/18 03:26:15;;;;;;;10.03;8.63;;;4.60;99.90;;;;;;5008865;28;20446;-78
2021/04/18 03:28:44;;;;;;;12.10;9.30;;;4.60;99.90;;;;;;5039849;28;20451;-78
2021/04/18 03:31:14;;;;;;;12.63;9.53;;;4.60;99.90;;;;;;5011071;28;21011;-78
2021/04/18 03:33:53;;;;;;;10.30;8.70;;;4.60;99.90;;;;;;5004654;28;20455;-78
2021/04/18 03:36:20;;;;;;;9.30;8.20;;;4.60;99.90;;;;;;5011633;28;20458;-78
2021/04/18 03:38:47;;;;;;;10.53;8.90;;;4.60;99.90;;;;;;5009258;28;20477;-78
2021/04/18 03:41:16;;;;;;;10.37;8.50;;;4.50;99.90;;;;;;5013061;28;20865;-78
2021/04/18 03:43:43;;;;;;;10.20;8.70;;;4.50;99.90;;;;;;5025016;28;20542;-78
2021/04/18 03:46:15;;;;;;;10.47;8.93;;;4.50;99.90;;;;;;5019201;28;20197;-79
2021/04/18 03:48:47;;;;;;;11.43;10.03;;;4.50;99.90;;;;;;5027390;28;20723;-78
2021/04/18 03:51:15;;;;;;;9.70;8.70;;;4.40;99.90;;;;;;5028362;28;20465;-78
2021/04/18 03:53:49;;;;;;;12.10;10.00;;;4.40;99.90;;;;;;5057571;28;20450;-78
2021/04/18 03:56:20;;;;;;;8.83;7.93;;;4.50;99.90;;;;;;5019813;28;20251;-78
2021/04/18 03:58:49;;;;;;;14.07;8.90;;;4.40;99.90;;;;;;5026062;28;20474;-78
2021/04/18 04:01:20;;;;;;;12.40;11.10;;;4.40;99.90;;;;;;5025843;28;20449;-77
2021/04/18 04:03:47;;;;;;;13.77;10.93;;;4.40;99.90;;;;;;5028230;28;20455;-77
2021/04/18 04:06:15;;;;;;;13.50;10.47;;;4.50;99.90;;;;;;5029439;28;20448;-77
2021/04/18 04:08:43;;;;;;;10.93;9.73;;;4.50;99.90;;;;;;5027736;28;20451;-78
2021/04/18 04:11:13;;;;;;;12.23;10.23;;;4.40;99.90;;;;;;5024039;28;20471;-81
2021/04/18 04:13:43;;;;;;;11.20;9.40;;;4.50;99.90;;;;;;5014541;28;20459;-80
2021/04/18 04:16:10;;;;;;;11.57;9.93;;;4.40;99.90;;;;;;5014901;28;20812;-78
2021/04/18 04:18:38;;;;;;;10.97;9.80;;;4.50;99.90;;;;;;5015400;28;20482;-78
2021/04/18 04:21:26;;;;;;;10.70;9.57;;;4.40;99.90;;;;;;5008751;28;20464;-78
2021/04/18 04:24:02;;;;;;;14.03;10.77;;;4.50;99.90;;;;;;5015156;28;20446;-78
2021/04/18 04:26:28;;;;;;;12.70;10.30;;;4.40;99.90;;;;;;5016519;28;20447;-78
2021/04/18 04:28:55;;;;;;;12.17;9.97;;;4.40;99.90;;;;;;5022570;28;20486;-78
2021/04/18 04:31:22;;;;;;;11.50;10.30;;;4.30;99.90;;;;;;5014150;28;20467;-79
2021/04/18 04:33:48;;;;;;;11.87;10.10;;;4.40;99.90;;;;;;5015219;28;20882;-78
2021/04/18 04:36:14;;;;;;;11.70;10.03;;;4.40;99.90;;;;;;5033297;28;20447;-78
2021/04/18 04:38:41;;;;;;;13.00;10.20;;;4.40;99.90;;;;;;5011945;28;20541;-79
2021/04/18 04:41:08;;;;;;;11.37;9.07;;;4.50;99.90;;;;;;5015265;28;20474;-79
2021/04/18 04:43:34;;;;;;;10.23;8.10;;;4.40;99.90;;;;;;5016140;28;20820;-78
2021/04/18 04:46:00;;;;;;;10.57;9.07;;;4.40;99.90;;;;;;5035515;28;21036;-77
2021/04/18 04:48:27;;;;;;;11.07;9.17;;;4.40;99.90;;;;;;5015440;28;20444;-79
2021/04/18 04:50:53;;;;;;;12.47;8.73;;;4.40;99.90;;;;;;5014813;28;20475;-78
2021/04/18 04:53:19;;;;;;;11.17;9.10;;;4.40;99.90;;;;;;5015921;28;20449;-81
2021/04/18 04:55:47;;;;;;;11.63;9.17;;;4.40;99.90;;;;;;5017583;28;20450;-81
2021/04/18 04:58:14;;;;;;;11.90;9.53;;;4.40;99.90;;;;;;5030550;28;20546;-79
2021/04/18 05:00:41;;;;;;;10.90;9.20;;;4.50;99.90;;;;;;5015451;28;20836;-80
2021/04/18 05:03:08;;;;;;;11.37;9.63;;;4.50;99.90;;;;;;5013821;28;20455;-79
2021/04/18 05:05:35;;;;;;;10.30;9.23;;;4.50;99.90;;;;;;5013782;28;20475;-79
2021/04/18 05:08:01;;;;;;;11.40;9.30;;;4.50;99.90;;;;;;5012816;28;20254;-79
2021/04/18 05:10:28;;;;;;;10.17;9.07;;;4.50;99.90;;;;;;5015515;28;20467;-79
2021/04/18 05:12:55;;;;;;;13.40;10.10;;;4.50;99.90;;;;;;5016569;28;20445;-81
2021/04/18 05:15:22;;;;;;;12.43;9.07;;;4.50;99.90;;;;;;5019220;28;20458;-81
2021/04/18 05:17:49;;;;;;;10.63;9.40;;;4.50;99.90;;;;;;5015325;28;20558;-79
2021/04/18 05:20:16;;;;;;;12.03;9.90;;;4.50;99.90;;;;;;5017835;28;20881;-77
2021/04/18 05:22:43;;;;;;;11.83;10.30;;;4.50;99.90;;;;;;5014246;28;20505;-77
2021/04/18 05:25:10;;;;;;;11.77;10.03;;;4.50;99.90;;;;;;5014569;28;20481;-77
2021/04/18 05:27:37;;;;;;;12.30;9.53;;;4.50;99.90;;;;;;5040945;28;20570;-80
2021/04/18 05:30:07;;;;;;;12.37;10.27;;;4.50;99.90;;;;;;5013391;28;20466;-79
2021/04/18 05:32:34;;;;;;;10.60;9.43;;;4.50;99.90;;;;;;5012721;28;20266;-76
2021/04/18 05:35:01;;;;;;;12.50;10.13;;;4.60;99.90;;;;;;5009599;28;20492;-78
2021/04/18 05:37:27;;;;;;;11.27;9.60;;;4.70;99.90;;;;;;5015463;28;20474;-78
2021/04/18 05:39:57;;;;;;;11.43;9.27;;;4.70;99.90;;;;;;5011066;28;20471;-77
2021/04/18 05:42:23;;;;;;;10.83;9.03;;;4.70;99.90;;;;;;4997739;28;20964;-78
2021/04/18 05:44:49;;;;;;;10.83;8.70;;;4.70;99.90;;;;;;4998220;28;20440;-78
2021/04/18 05:47:17;;;;;;;10.27;9.20;;;4.70;99.90;;;;;;5005131;28;20940;-77
2021/04/18 05:49:43;;;;;;;10.33;9.23;;;4.80;99.90;;;;;;5016883;28;20469;-78
2021/04/18 05:52:10;;;;;;;10.97;9.03;;;4.80;99.90;;;;;;5014842;28;20439;-78
2021/04/18 05:54:36;;;;;;;10.30;8.90;;;4.80;99.90;;;;;;4997649;28;20505;-79
2021/04/18 05:57:02;;;;;;;10.70;9.50;;;4.80;99.90;;;;;;5017224;28;20203;-79
2021/04/18 05:59:29;;;;;;;10.17;9.13;;;4.80;99.90;;;;;;5017558;28;20840;-79
2021/04/18 06:01:55;;;;;;;10.07;8.37;;;4.80;99.90;;;;;;5014903;28;20468;-79
2021/04/18 06:04:23;;;;;;;9.87;8.53;;;4.90;99.90;;;;;;5017402;28;20189;-79
2021/04/18 06:06:49;;;;;;;12.60;9.63;;;5.00;99.90;;;;;;5016242;28;20943;-79
2021/04/18 06:09:15;;;;;;;10.10;8.90;;;5.00;99.90;;;;;;5016397;28;20443;-79
2021/04/18 06:11:42;;;;;;;9.93;7.90;;;5.00;99.90;;;;;;5015857;28;20196;-79
2021/04/18 06:14:08;;;;;;;9.00;7.83;;;5.00;99.90;;;;;;5015330;28;20203;-79
2021/04/18 06:16:34;;;;;;;9.20;8.00;;;5.10;99.90;;;;;;5016707;28;20594;-78
2021/04/18 06:19:01;;;;;;;9.40;7.93;;;5.10;99.90;;;;;;5019683;28;20208;-79
2021/04/18 06:21:28;;;;;;;8.70;7.63;;;5.20;99.90;;;;;;5001597;28;20229;-79
2021/04/18 06:23:54;;;;;;;8.97;7.83;;;5.20;99.90;;;;;;5001693;28;20200;-81
2021/04/18 06:26:21;;;;;;;8.90;7.87;;;5.30;99.90;;;;;;5003749;28;20251;-79
2021/04/18 06:28:47;;;;;;;9.17;8.13;;;5.30;99.90;;;;;;5015069;28;20233;-78
2021/04/18 06:31:13;;;;;;;9.03;7.60;;;5.40;99.90;;;;;;5011458;28;20217;-77
2021/04/18 06:33:39;;;;;;;8.70;7.80;;;5.40;99.90;;;;;;5026227;28;20201;-77
2021/04/18 06:36:06;;;;;;;9.53;8.07;;;5.50;99.90;;;;;;5003152;28;20246;-78
2021/04/18 06:38:33;;;;;;;10.63;9.63;;;5.60;99.90;;;;;;5016340;28;20228;-78
2021/04/18 06:41:01;;;;;;;11.60;10.40;;;5.70;99.90;;;;;;5030348;28;20716;-78
2021/04/18 06:43:27;;;;;;;12.93;9.40;;;5.70;99.90;;;;;;5031854;28;20204;-78
2021/04/18 06:45:54;;;;;;;10.20;8.40;;;5.80;99.90;;;;;;5035337;28;20192;-78
2021/04/18 06:48:21;;;;;;;11.23;8.30;;;5.80;99.90;;;;;;5008272;28;20235;-78
2021/04/18 06:50:49;;;;;;;11.53;8.20;;;5.80;99.90;;;;;;5027285;28;20652;-78
2021/04/18 06:53:16;;;;;;;9.70;8.47;;;5.90;99.90;;;;;;5022799;28;20196;-78
2021/04/18 06:55:43;;;;;;;12.13;11.10;;;6.10;99.90;;;;;;5026595;28;20235;-77
2021/04/18 06:58:11;;;;;;;15.10;13.70;;;6.10;99.90;;;;;;5023884;28;20225;-78
2021/04/18 07:00:38;;;;;;;11.63;10.53;;;6.00;99.90;;;;;;5014316;28;20235;-81
2021/04/18 07:03:13;;;;;;;11.33;10.27;;;6.10;99.90;;;;;;5008118;28;20232;-78
2021/04/18 07:05:45;;;;;;;13.83;12.63;;;6.20;99.90;;;;;;5024664;28;20239;-79
2021/04/18 07:08:24;;;;;;;14.83;13.43;;;6.20;99.90;;;;;;5000255;28;20284;-78
2021/04/18 07:10:52;;;;;;;14.07;12.97;;;6.20;99.90;;;;;;5000041;28;20731;-77
2021/04/18 07:13:24;;;;;;;14.00;12.87;;;6.20;99.90;;;;;;4997547;28;20195;-80
2021/04/18 07:15:53;;;;;;;13.80;12.70;;;6.30;99.90;;;;;;5026068;28;20201;-79
2021/04/18 07:18:37;;;;;;;13.80;12.60;;;6.40;99.90;;;;;;5008971;28;20595;-80
2021/04/18 07:21:04;;;;;;;12.93;11.63;;;6.50;99.90;;;;;;5020120;28;20220;-81
2021/04/18 07:23:34;;;;;;;14.13;12.93;;;6.60;99.90;;;;;;5003274;28;20201;-81
2021/04/18 07:26:21;;;;;;;15.83;14.43;;;6.80;99.90;;;;;;5036369;28;20224;-82
2021/04/18 07:28:48;;;;;;;16.30;14.90;;;6.80;99.90;;;;;;5016733;28;20228;-80
2021/04/18 07:31:29;;;;;;;16.03;14.73;;;6.90;99.90;;;;;;5016894;28;20240;-81
2021/04/18 07:34:06;;;;;;;16.13;14.87;;;6.90;99.90;;;;;;5037125;28;20199;-81
2021/04/18 07:36:35;;;;;;;13.93;12.83;;;7.10;99.90;;;;;;5035694;28;20201;-80
2021/04/18 07:39:01;;;;;;;15.93;14.63;;;7.30;99.90;;;;;;5045562;28;20221;-80
2021/04/18 07:41:29;;;;;;;15.97;14.67;;;7.40;99.90;;;;;;5030239;28;20620;-80
2021/04/18 07:43:55;;;;;;;17.40;15.77;;;7.30;99.90;;;;;;5018894;28;20217;-81
2021/04/18 07:46:22;;;;;;;16.43;15.03;;;7.30;99.90;;;;;;5025163;28;20206;-80
2021/04/18 07:48:49;;;;;;;14.40;13.10;;;7.40;99.90;;;;;;5030484;28;20198;-81
2021/04/18 07:51:17;;;;;;;15.33;14.13;;;7.50;99.90;;;;;;5034042;28;20222;-80
2021/04/18 07:53:44;;;;;;;16.00;14.70;;;7.50;99.90;;;;;;5034192;28;20210;-81
2021/04/18 07:56:15;;;;;;;11.73;10.60;;;7.60;99.90;;;;;;5032015;28;20212;-82
2021/04/18 07:58:44;;;;;;;15.87;14.57;;;7.90;99.90;;;;;;5034101;28;20255;-81
2021/04/18 08:01:11;;;;;;;12.07;11.07;;;7.90;99.90;;;;;;5017967;28;20230;-81
2021/04/18 08:03:41;;;;;;;10.00;9.10;;;8.10;99.90;;;;;;5035025;28;20224;-82
2021/04/18 08:06:08;;;;;;;10.67;9.67;;;8.20;99.90;;;;;;5028345;28;20211;-80
2021/04/18 08:08:46;;;;;;;9.27;7.77;;;8.30;99.90;;;;;;5037466;28;20187;-81
2021/04/18 08:11:16;;;;;;;14.13;12.93;;;8.20;99.90;;;;;;5042334;28;20722;-82
2021/04/18 08:13:47;;;;;;;12.97;11.90;;;8.50;99.90;;;;;;5040424;28;20198;-82
2021/04/18 08:16:14;;;;;;;12.00;10.90;;;8.60;99.90;;;;;;5042641;28;20197;-81
2021/04/18 08:18:42;;;;;;;12.60;11.40;;;8.60;99.90;;;;;;5037556;28;20703;-81
2021/04/18 08:21:31;;;;;;;10.77;9.87;;;8.70;99.90;;;;;;5038314;28;20216;-81
2021/04/18 08:23:58;;;;;;;12.97;11.67;;;8.80;99.90;;;;;;5027787;28;20218;-81
2021/04/18 08:26:34;;;;;;;14.57;13.37;;;8.70;99.90;;;;;;5041418;28;20207;-82
2021/04/18 08:29:15;;;;;;;14.40;13.07;;;8.50;99.90;;;;;;5032549;28;20188;-82
2021/04/18 08:32:05;;;;;;;14.30;13.00;;;8.50;99.90;;;;;;5027268;28;20192;-82
2021/04/18 08:34:39;;;;;;;15.30;14.10;;;8.30;99.90;;;;;;5030639;28;20196;-82
2021/04/18 08:37:15;;;;;;;14.73;13.53;;;8.20;99.90;;;;;;5059224;28;20203;-83
2021/04/18 08:39:50;;;;;;;14.73;13.53;;;8.20;99.90;;;;;;5060230;28;20598;-83
2021/04/18 08:42:34;;;;;;;14.63;13.33;;;8.00;99.90;;;;;;5032366;28;20226;-84
2021/04/18 08:45:12;;;;;;;13.63;12.57;;;7.90;99.90;;;;;;5019937;28;20306;-83
2021/04/18 08:47:40;;;;;;;14.37;13.20;;;7.90;99.90;;;;;;5016652;28;20204;-83
2021/04/18 08:50:16;;;;;;;14.50;13.20;;;7.90;99.90;;;;;;5013929;28;20698;-82
2021/04/18 08:52:43;;;;;;;14.63;13.43;;;7.80;99.90;;;;;;5025126;28;20242;-82
2021/04/18 08:55:12;;;;;;;15.20;13.90;;;7.80;99.90;;;;;;5021131;28;20199;-82
2021/04/18 08:57:38;;;;;;;13.77;12.67;;;7.80;99.90;;;;;;5018273;28;20701;-81
2021/04/18 09:00:08;;;;;;;14.43;13.23;;;7.80;99.90;;;;;;5022608;28;20229;-82
2021/04/18 09:02:38;;;;;;;13.87;12.67;;;7.90;99.90;;;;;;5017692;28;20225;-82
2021/04/18 09:05:09;;;;;;;13.93;12.83;;;8.00;99.90;;;;;;5020288;28;20196;-82
2021/04/18 09:07:41;;;;;;;14.70;13.40;;;8.00;99.90;;;;;;5023810;28;20254;-82
2021/04/18 09:10:11;;;;;;;14.53;13.07;;;8.00;99.90;;;;;;5019287;28;20592;-81
2021/04/18 09:12:38;;;;;;;14.27;12.93;;;8.10;99.90;;;;;;5020944;28;20211;-81
2021/04/18 09:15:07;;;;;;;15.93;14.47;;;8.10;99.90;;;;;;5018716;28;20202;-82
2021/04/18 09:17:38;;;;;;;16.00;14.60;;;8.10;99.90;;;;;;5017646;28;20198;-81
2021/04/18 09:20:07;;;;;;;15.00;13.80;;;8.10;99.90;;;;;;5040409;28;20221;-82
2021/04/18 09:22:35;;;;;;;14.73;13.33;;;8.10;99.90;;;;;;5018454;28;20230;-81
2021/04/18 09:25:07;;;;;;;15.60;14.30;;;8.30;99.90;;;;;;5024762;28;20223;-81
2021/04/18 09:27:35;;;;;;;15.40;13.90;;;8.40;99.90;;;;;;5026532;28;20200;-81
2021/04/18 09:30:06;;;;;;;15.10;13.80;;;8.30;99.90;;;;;;5016599;28;20731;-82
2021/04/18 09:32:34;;;;;;;15.30;13.77;;;8.30;99.90;;;;;;5018465;28;20196;-82
2021/04/18 09:35:03;;;;;;;15.00;13.57;;;8.40;99.90;;;;;;5018563;28;20590;-82
2021/04/18 09:37:33;;;;;;;14.43;13.23;;;8.50;99.90;;;;;;5041472;28;20306;-81
2021/04/18 09:40:02;;;;;;;14.37;12.90;;;8.60;99.90;;;;;;5013520;28;20232;-82
2021/04/18 09:42:34;;;;;;;15.33;13.77;;;8.70;99.90;;;;;;5018065;28;20197;-81
2021/04/18 09:45:14;;;;;;;15.17;13.73;;;8.70;99.90;;;;;;4998222;28;20203;-78
2021/04/18 09:47:42;;;;;;;15.23;13.50;;;8.70;99.90;;;;;;5014714;28;20200;-78
2021/04/18 09:50:17;;;;;;;14.37;12.60;;;8.70;99.90;;;;;;4996558;28;20216;-78
2021/04/18 09:52:45;;;;;;;15.33;13.83;;;8.90;99.90;;;;;;5015826;28;20210;-78
2021/04/18 09:55:21;;;;;;;16.93;14.70;;;9.00;99.90;;;;;;4994265;28;20258;-78
2021/04/18 09:57:53;;;;;;;22.07;15.93;;;8.90;99.90;;;;;;5017619;28;20258;-78
2021/04/18 10:00:25;;;;;;;17.73;14.27;;;9.00;99.90;;;;;;5002503;28;20222;-78
2021/04/18 10:03:04;;;;;;;18.70;14.63;;;9.10;99.90;;;;;;5018003;28;20192;-77
2021/04/18 10:05:33;;;;;;;17.17;14.73;;;9.00;99.90;;;;;;4992780;28;20227;-78
2021/04/18 10:11:34;;;;;;;16.37;14.27;;;8.80;99.90;;;;;;4961833;28;20235;-80
2021/04/18 10:14:01;;;;;;;15.83;13.93;;;8.80;99.90;;;;;;5010598;28;20231;-80
2021/04/18 10:16:40;;;;;;;17.20;13.87;;;8.80;99.90;;;;;;5019009;28;20617;-79
2021/04/18 10:19:10;;;;;;;18.23;12.33;;;8.60;99.90;;;;;;5017782;28;20687;-79
2021/04/18 10:21:38;;;;;;;15.33;13.70;;;8.60;99.90;;;;;;5002417;28;20282;-80
2021/04/18 10:24:25;;;;;;;17.03;12.53;;;8.60;99.90;;;;;;5003223;28;20204;-80
2021/04/18 10:26:52;;;;;;;21.33;15.27;;;8.60;99.90;;;;;;5018232;28;20581;-80
2021/04/18 10:29:18;;;;;;;18.33;13.67;;;8.50;99.90;;;;;;5020792;28;20203;-79
2021/04/18 10:31:44;;;;;;;16.00;12.67;;;8.70;99.90;;;;;;5017547;28;20200;-80
2021/04/18 10:34:12;;;;;;;16.20;12.83;;;8.90;99.90;;;;;;5002180;28;20231;-79
2021/04/18 10:36:41;;;;;;;15.17;12.77;;;9.20;99.90;;;;;;5025747;28;20671;-79
2021/04/18 10:39:07;;;;;;;14.90;13.07;;;9.50;99.90;;;;;;5033342;28;20397;-80
2021/04/18 10:41:34;;;;;;;13.87;12.57;;;9.80;99.90;;;;;;5024435;28;20223;-79
2021/04/18 10:44:01;;;;;;;14.47;11.07;;;9.80;99.90;;;;;;5005680;28;20203;-79
2021/04/18 10:46:27;;;;;;;13.30;11.90;;;9.90;99.90;;;;;;5005567;28;20374;-79
2021/04/18 10:48:54;;;;;;;13.23;11.70;;;10.00;99.90;;;;;;5019374;28;20212;-79
2021/04/18 10:51:21;;;;;;;14.57;11.83;;;10.10;99.90;;;;;;5015269;28;20224;-79
2021/04/18 10:53:47;;;;;;;15.77;13.50;;;10.20;99.90;;;;;;5001598;28;20669;-79
2021/04/18 10:56:13;;;;;;;14.70;13.20;;;10.30;99.90;;;;;;5019893;28;20205;-79
2021/04/18 10:58:40;;;;;;;14.20;12.63;;;10.30;99.90;;;;;;5002472;28;20215;-79
2021/04/18 11:01:07;;;;;;;15.57;12.47;;;10.50;99.90;;;;;;5019018;28;20685;-79
2021/04/18 11:03:33;;;;;;;15.60;14.00;;;10.50;99.90;;;;;;5019039;28;20212;-79
2021/04/18 11:05:59;;;;;;;14.50;12.47;;;10.50;99.90;;;;;;5000634;28;20201;-79
2021/04/18 11:08:26;;;;;;;15.50;13.03;;;10.50;99.90;;;;;;5001954;28;20660;-79
2021/04/18 11:10:52;;;;;;;14.00;12.80;;;10.30;99.90;;;;;;5017034;28;20220;-78
2021/04/18 11:13:19;;;;;;;13.90;12.13;;;10.30;99.90;;;;;;5013624;28;20200;-79
2021/04/18 11:15:47;;;;;;;13.03;10.77;;;10.30;99.90;;;;;;5015725;28;20681;-79
2021/04/18 11:18:17;;;;;;;11.93;10.63;;;10.20;99.90;;;;;;5001091;28;20265;-79
2021/04/18 11:20:43;;;;;;;13.53;11.07;;;10.50;99.90;;;;;;5010080;28;20243;-78
2021/04/18 11:23:11;;;;;;;13.97;11.77;;;10.60;99.90;;;;;;5029246;28;20199;-79
2021/04/18 11:25:37;;;;;;;12.13;9.83;;;10.70;99.90;;;;;;5017467;28;20556;-80
2021/04/18 11:28:04;;;;;;;12.93;11.07;;;10.80;99.90;;;;;;5018844;28;20204;-79
2021/04/18 11:30:31;;;;;;;13.87;11.40;;;10.80;99.90;;;;;;5047092;28;20228;-79
2021/04/18 11:32:57;;;;;;;12.40;11.10;;;10.60;99.90;;;;;;5035917;28;20619;-79
2021/04/18 11:35:24;;;;;;;14.63;11.80;;;10.80;99.90;;;;;;5015079;28;20307;-79
2021/04/18 11:37:54;;;;;;;15.47;11.33;;;10.90;99.90;;;;;;5031935;28;20217;-79
2021/04/18 11:40:21;;;;;;;14.33;11.73;;;10.70;99.90;;;;;;5054321;22;20226;-77
2021/04/18 11:42:47;;;;;;;13.83;11.37;;;10.80;99.90;;;;;;5080546;28;20195;-77
2021/04/18 11:45:15;;;;;;;14.57;10.80;;;10.90;99.90;;;;;;5079327;28;20651;-77
2021/04/18 11:47:42;;;;;;;13.60;11.23;;;10.80;99.90;;;;;;5078335;28;20677;-78
2021/04/18 11:50:09;;;;;;;12.60;11.17;;;10.70;99.90;;;;;;5096939;28;20252;-77
2021/04/18 11:52:36;;;;;;;14.33;12.13;;;10.70;99.90;;;;;;5094304;28;20578;-79
2021/04/18 11:55:04;;;;;;;12.80;11.50;;;10.70;99.90;;;;;;5096848;28;20627;-78
2021/04/18 11:57:30;;;;;;;14.10;12.60;;;11.00;99.90;;;;;;5097684;28;20284;-79
2021/04/18 11:59:57;;;;;;;13.13;11.70;;;10.90;99.90;;;;;;5079405;28;20599;-79
2021/04/18 12:02:23;;;;;;;13.97;11.77;;;11.00;99.90;;;;;;5098430;28;20198;-80
2021/04/18 12:04:49;;;;;;;13.50;11.43;;;11.10;99.90;;;;;;5098229;28;20199;-79
2021/04/18 12:07:16;;;;;;;12.30;11.10;;;11.10;99.90;;;;;;5089844;28;20655;-79
2021/04/18 12:09:43;;;;;;;12.50;10.97;;;11.00;99.90;;;;;;5098317;28;20206;-78
2021/04/18 12:12:09;;;;;;;12.30;11.10;;;11.00;99.90;;;;;;5097588;28;20772;-79
2021/04/18 12:14:36;;;;;;;12.87;11.57;;;11.20;99.90;;;;;;5079167;28;20202;-78
2021/04/18 12:17:02;;;;;;;13.93;10.97;;;11.00;99.90;;;;;;5077633;28;20206;-78
2021/04/18 12:19:28;;;;;;;14.10;12.60;;;11.10;99.90;;;;;;5093973;28;20763;-78
2021/04/18 12:21:55;;;;;;;14.23;12.90;;;11.20;99.90;;;;;;5077917;28;20310;-79
2021/04/18 12:24:21;;;;;;;13.60;12.37;;;10.90;99.90;;;;;;5096223;28;20198;-78
2021/04/18 12:26:48;;;;;;;13.30;12.03;;;10.90;99.90;;;;;;5097300;28;20667;-78
2021/04/18 12:29:15;;;;;;;13.63;12.27;;;10.80;99.90;;;;;;5079745;28;20194;-78
2021/04/18 12:31:41;;;;;;;15.10;13.60;;;10.70;99.90;;;;;;5094825;28;20218;-78
2021/04/18 12:34:08;;;;;;;12.13;10.93;;;10.40;99.90;;;;;;5097195;28;20194;-81
2021/04/18 12:36:34;;;;;;;12.13;10.43;;;10.60;99.90;;;;;;5098998;28;20548;-80
2021/04/18 12:39:00;;;;;;;12.53;11.23;;;10.70;99.90;;;;;;5077071;28;20273;-80
2021/04/18 12:41:27;;;;;;;11.97;10.77;;;10.80;99.90;;;;;;5077609;28;20230;-81
2021/04/18 12:43:55;;;;;;;12.47;11.10;;;10.80;99.90;;;;;;5095524;28;20203;-81
2021/04/18 12:46:21;;;;;;;13.17;11.30;;;10.80;99.90;;;;;;5072887;28;20194;-82
2021/04/18 12:48:47;;;;;;;11.57;10.57;;;11.10;99.90;;;;;;5071318;28;20677;-80
2021/04/18 12:51:14;;;;;;;13.63;12.23;;;11.40;99.90;;;;;;5094245;28;20285;-80